Time;durP1;ratioP1;P1;durP2;ratioP2;P2;SDS_P1;SDS_P2;PMS_P1;PMS_P2;Temp;Humidity;BMP_temperature;BMP_pressure;BME280_temperature;BME280_humidity;BME280_pressure;Samples;Min_cycle;Max_cycle;Signal;HPM_P1;HPM_P2
2024/04/19 00:01:45;;;;;;;7.93;4.03;;;;;;;10.68;56.15;100781.53;5311703;27;20222;-77
2024/04/19 00:04:10;;;;;;;9.23;4.63;;;;;;;10.77;56.22;100777.28;5311779;27;20233;-75
2024/04/19 00:06:35;;;;;;;5.03;3.90;;;;;;;10.25;56.68;100768.88;5311692;26;20798;-77
2024/04/19 00:09:01;;;;;;;6.83;4.17;;;;;;;10.27;56.65;100768.03;5280004;27;20249;-74
2024/04/19 00:11:27;;;;;;;11.33;4.23;;;;;;;10.77;55.83;100756.41;5310823;27;20222;-75
2024/04/19 00:13:53;;;;;;;8.03;4.20;;;;;;;10.61;56.05;100754.53;5280397;27;20241;-76
2024/04/19 00:16:18;;;;;;;10.53;4.13;;;;;;;10.74;56.03;100751.19;5310240;26;20461;-76
2024/04/19 00:18:43;;;;;;;8.90;4.23;;;;;;;10.72;55.60;100745.06;5310811;27;20252;-76
2024/04/19 00:21:09;;;;;;;6.03;3.97;;;;;;;10.90;55.56;100735.66;5310828;26;20242;-75
2024/04/19 00:23:36;;;;;;;8.97;4.37;;;;;;;10.60;56.81;100734.53;5311536;27;20230;-77
2024/04/19 00:26:01;;;;;;;8.03;4.37;;;;;;;10.26;56.52;100737.63;5310754;27;20233;-75
2024/04/19 00:28:27;;;;;;;5.40;4.03;;;;;;;10.79;55.44;100731.22;5279827;27;20542;-75
2024/04/19 00:30:55;;;;;;;6.93;4.20;;;;;;;10.74;56.16;100729.44;5280075;27;20265;-76
2024/04/19 00:33:21;;;;;;;7.37;4.50;;;;;;;9.99;57.19;100722.56;5310512;27;20238;-76
2024/04/19 00:35:46;;;;;;;9.53;4.90;;;;;;;9.76;57.66;100722.28;5310791;27;20469;-75
2024/04/19 00:38:12;;;;;;;6.13;3.90;;;;;;;10.36;56.58;100706.50;5280198;27;20601;-76
2024/04/19 00:40:37;;;;;;;8.23;3.90;;;;;;;10.55;55.90;100704.94;5310187;26;20340;-75
2024/04/19 00:43:03;;;;;;;6.77;4.23;;;;;;;10.57;56.46;100691.06;5310760;27;20242;-75
2024/04/19 00:45:36;;;;;;;9.00;4.20;;;;;;;10.31;57.06;100687.28;5310391;27;20222;-75
2024/04/19 00:48:09;;;;;;;10.17;5.20;;;;;;;10.65;56.21;100683.31;5310201;27;20816;-75
2024/04/19 00:50:35;;;;;;;9.53;4.13;;;;;;;10.58;57.35;100686.69;5310439;27;20536;-75
2024/04/19 00:53:01;;;;;;;6.23;4.40;;;;;;;10.45;57.20;100676.16;5310614;27;20495;-76
2024/04/19 00:55:27;;;;;;;6.23;4.30;;;;;;;10.51;57.69;100671.88;5310014;27;20429;-76
2024/04/19 00:57:53;;;;;;;13.20;4.83;;;;;;;10.15;58.35;100665.41;5310150;27;20469;-76
2024/04/19 01:00:19;;;;;;;7.30;4.30;;;;;;;10.03;59.28;100659.22;5311078;27;20482;-77
2024/04/19 01:02:44;;;;;;;7.77;4.13;;;;;;;10.53;58.54;100657.13;5313731;27;20226;-78
2024/04/19 01:05:10;;;;;;;8.20;4.57;;;;;;;10.10;59.45;100657.56;5321606;27;20230;-76
2024/04/19 01:07:35;;;;;;;6.37;4.10;;;;;;;9.74;60.52;100657.19;5326509;26;20241;-73
2024/04/19 01:10:00;;;;;;;7.67;4.87;;;;;;;9.59;61.79;100654.38;5326711;27;20331;-75
2024/04/19 01:12:26;;;;;;;9.67;4.20;;;;;;;10.39;59.98;100644.84;5321569;27;20740;-76
2024/04/19 01:14:51;;;;;;;5.90;4.30;;;;;;;10.01;61.53;100637.53;5317056;27;20691;-76
2024/04/19 01:17:16;;;;;;;4.70;4.30;;;;;;;10.35;60.63;100639.59;5315344;27;20246;-75
2024/04/19 01:19:41;;;;;;;5.97;4.00;;;;;;;9.88;60.60;100639.09;5312876;27;20222;-73
2024/04/19 01:22:07;;;;;;;8.67;4.17;;;;;;;10.29;61.19;100627.34;5313190;27;20583;-75
2024/04/19 01:24:39;;;;;;;8.47;4.97;;;;;;;9.98;61.36;100618.38;5313116;27;20238;-76
2024/04/19 01:27:08;;;;;;;8.63;4.97;;;;;;;10.11;61.03;100617.63;5312777;27;20277;-76
2024/04/19 01:29:35;;;;;;;8.37;4.43;;;;;;;9.72;62.82;100609.41;5312914;27;20465;-75
2024/04/19 01:32:02;;;;;;;5.90;4.20;;;;;;;9.85;62.33;100609.53;5312836;27;20491;-75
2024/04/19 01:34:27;;;;;;;7.50;4.73;;;;;;;10.19;62.58;100599.44;5278974;27;20573;-75
2024/04/19 01:36:52;;;;;;;5.10;4.50;;;;;;;9.61;63.90;100600.63;5279793;27;20470;-75
2024/04/19 01:39:18;;;;;;;5.57;4.77;;;;;;;9.36;64.36;100592.53;5279027;27;20722;-75
2024/04/19 01:41:43;;;;;;;5.60;4.57;;;;;;;8.84;64.59;100587.50;5284656;27;20219;-75
2024/04/19 01:44:08;;;;;;;7.40;4.80;;;;;;;9.20;65.36;100582.78;5290889;27;20220;-73
2024/04/19 01:46:34;;;;;;;8.87;7.10;;;;;;;8.80;65.87;100577.94;5282736;27;20236;-77
2024/04/19 01:48:59;;;;;;;10.47;7.27;;;;;;;9.16;66.04;100570.59;5279342;27;20273;-76
2024/04/19 01:51:24;;;;;;;6.20;5.27;;;;;;;9.36;65.39;100571.72;5279890;27;20227;-75
2024/04/19 01:53:49;;;;;;;6.97;5.30;;;;;;;9.59;63.58;100563.28;5279019;27;20227;-75
2024/04/19 01:56:15;;;;;;;6.80;5.00;;;;;;;9.31;65.61;100555.19;5278489;27;20282;-75
2024/04/19 01:58:40;;;;;;;6.87;5.03;;;;;;;9.53;64.69;100545.88;5278432;27;20269;-74
2024/04/19 02:01:06;;;;;;;6.50;5.10;;;;;;;9.09;65.62;100544.53;5278379;27;20279;-75
2024/04/19 02:03:31;;;;;;;7.43;5.40;;;;;;;9.51;65.17;100538.91;5278615;27;20215;-75
2024/04/19 02:06:11;;;;;;;6.50;5.23;;;;;;;9.73;64.41;100524.41;5278068;27;20550;-74
2024/04/19 02:08:36;;;;;;;7.00;5.50;;;;;;;9.55;65.58;100519.88;5351079;22;20286;-77
2024/04/19 02:11:02;;;;;;;8.60;5.60;;;;;;;9.39;65.84;100514.53;5350279;26;20440;-78
2024/04/19 02:13:28;;;;;;;8.53;5.50;;;;;;;9.09;66.04;100509.81;5316425;26;20252;-77
2024/04/19 02:15:53;;;;;;;5.47;4.97;;;;;;;9.82;65.53;100502.78;5347745;26;20463;-77
2024/04/19 02:18:18;;;;;;;7.03;5.97;;;;;;;9.02;66.87;100498.47;5348051;26;20225;-77
2024/04/19 02:20:44;;;;;;;7.00;5.70;;;;;;;8.57;67.39;100497.03;5348165;26;20655;-78
2024/04/19 02:23:09;;;;;;;6.80;5.53;;;;;;;9.60;65.59;100480.00;5347205;26;20209;-77
2024/04/19 02:25:34;;;;;;;6.80;6.00;;;;;;;9.04;66.78;100481.19;5346991;26;20217;-77
2024/04/19 02:30:55;;;;;;;6.53;5.70;;;;;;;8.82;66.88;100476.56;5347062;26;20259;-77
2024/04/19 02:33:21;;;;;;;8.57;6.57;;;;;;;8.72;67.53;100465.19;5347692;26;20993;-78
2024/04/19 02:35:47;;;;;;;8.43;5.83;;;;;;;8.20;69.08;100452.31;5344740;26;20492;-77
2024/04/19 02:38:12;;;;;;;7.67;6.00;;;;;;;8.86;68.15;100447.16;5346438;26;20459;-78
2024/04/19 02:40:37;;;;;;;6.60;5.67;;;;;;;8.40;68.93;100440.50;5346697;26;20738;-77
2024/04/19 02:43:02;;;;;;;6.40;5.77;;;;;;;9.12;67.33;100434.47;5346920;26;20221;-77
2024/04/19 02:45:28;;;;;;;6.60;5.90;;;;;;;9.38;66.56;100423.44;5350321;26;20271;-78
2024/04/19 02:47:53;;;;;;;7.70;6.20;;;;;;;9.07;67.21;100421.41;5350234;26;20768;-77
2024/04/19 02:50:18;;;;;;;6.80;6.17;;;;;;;8.30;69.03;100410.03;5348496;26;20229;-76
2024/04/19 02:52:44;;;;;;;5.80;5.30;;;;;;;8.36;68.79;100404.06;5350819;26;20221;-76
2024/04/19 02:55:12;;;;;;;6.67;5.80;;;;;;;8.54;68.15;100399.13;5347328;26;20221;-77
2024/04/19 02:57:38;;;;;;;8.37;5.87;;;;;;;8.34;69.73;100380.66;5346365;26;20687;-77
2024/04/19 03:00:04;;;;;;;6.00;5.40;;;;;;;9.29;66.80;100372.19;5346253;26;20455;-77
2024/04/19 03:02:29;;;;;;;7.43;6.30;;;;;;;8.96;67.30;100371.03;5346658;26;20579;-78
2024/04/19 03:04:54;;;;;;;9.27;7.10;;;;;;;8.63;69.17;100359.38;5346307;26;20220;-78
2024/04/19 03:07:20;;;;;;;8.13;7.20;;;;;;;8.07;70.00;100360.41;5346614;26;20271;-79
2024/04/19 03:09:47;;;;;;;10.40;6.73;;;;;;;9.00;68.49;100338.09;5346426;26;20247;-78
2024/04/19 03:12:12;;;;;;;6.17;5.53;;;;;;;8.21;70.69;100345.00;5347238;26;20322;-78
2024/04/19 03:14:37;;;;;;;7.23;5.93;;;;;;;8.58;68.06;100342.91;5346809;26;20468;-77
2024/04/19 03:17:03;;;;;;;6.20;5.60;;;;;;;7.99;71.08;100331.72;5346530;26;20233;-77
2024/04/19 03:19:28;;;;;;;9.20;6.20;;;;;;;7.73;71.22;100336.56;5346352;26;20296;-77
2024/04/19 03:21:53;;;;;;;7.10;6.10;;;;;;;8.38;70.22;100317.50;5346836;26;20296;-76
2024/04/19 03:24:19;;;;;;;5.87;5.37;;;;;;;8.84;69.03;100326.72;5346728;26;20217;-77
2024/04/19 03:26:45;;;;;;;6.87;6.23;;;;;;;8.30;69.87;100303.56;5347034;26;20350;-78
2024/04/19 03:29:10;;;;;;;7.67;6.77;;;;;;;8.47;69.68;100293.41;5347919;26;20217;-77
2024/04/19 03:31:35;;;;;;;6.40;5.80;;;;;;;8.19;70.19;100292.19;5346715;26;20496;-76
2024/04/19 03:34:01;;;;;;;6.43;5.83;;;;;;;9.00;68.44;100297.41;5346061;26;20337;-78
2024/04/19 03:36:26;;;;;;;6.30;5.67;;;;;;;9.06;68.50;100286.16;5346293;26;20260;-77
2024/04/19 03:38:51;;;;;;;11.93;8.60;;;;;;;8.50;68.41;100279.59;5346297;26;20221;-77
2024/04/19 03:41:16;;;;;;;7.20;6.50;;;;;;;8.86;68.58;100273.00;5345548;26;20237;-78
2024/04/19 03:45:40;;;;;;;9.83;8.80;;;;;;;7.88;70.13;100276.22;5346653;26;20246;-76
2024/04/19 03:46:27;;;;;;;12.63;9.80;;;;;;;7.83;70.01;100263.16;5346310;26;20263;-77
2024/04/19 03:48:53;;;;;;;8.23;7.43;;;;;;;7.85;69.88;100265.81;5346015;26;20832;-76
2024/04/19 03:51:18;;;;;;;36.43;26.63;;;;;;;8.14;69.86;100242.78;5345763;26;20220;-77
2024/04/19 03:53:43;;;;;;;7.10;6.40;;;;;;;7.78;69.76;100232.81;5345696;26;20828;-77
2024/04/19 03:56:09;;;;;;;7.27;6.57;;;;;;;7.76;71.80;100222.44;5345813;26;20224;-76
2024/04/19 03:58:34;;;;;;;6.97;6.30;;;;;;;8.22;69.00;100219.50;5345431;26;20315;-77
2024/04/19 04:01:03;;;;;;;7.17;6.37;;;;;;;9.00;68.02;100205.50;5345483;26;20260;-77
2024/04/19 04:03:28;;;;;;;6.67;6.17;;;;;;;8.22;69.13;100209.13;5345653;26;20270;-77
2024/04/19 04:05:53;;;;;;;11.73;7.03;;;;;;;8.15;69.93;100203.00;5345237;26;20451;-77
2024/04/19 04:08:19;;;;;;;7.27;6.67;;;;;;;8.29;70.16;100186.69;5343398;26;20241;-77
2024/04/19 04:10:44;;;;;;;7.67;6.90;;;;;;;8.18;69.96;100192.63;5346663;26;20616;-77
2024/04/19 04:13:09;;;;;;;8.10;7.40;;;;;;;8.62;69.46;100186.16;5343952;26;20233;-76
2024/04/19 04:15:35;;;;;;;7.67;6.97;;;;;;;9.40;68.07;100174.56;5345585;26;20237;-77
2024/04/19 04:18:01;;;;;;;8.77;7.70;;;;;;;8.65;68.70;100164.53;5345017;26;20232;-77
2024/04/19 04:20:27;;;;;;;8.10;7.30;;;;;;;7.56;72.35;100166.00;5343288;26;20318;-77
2024/04/19 04:22:52;;;;;;;8.20;7.47;;;;;;;8.61;70.26;100157.59;5346050;26;20447;-76
2024/04/19 04:25:17;;;;;;;8.77;8.07;;;;;;;8.54;71.01;100148.88;5343531;26;20252;-77
2024/04/19 04:27:43;;;;;;;7.40;6.80;;;;;;;7.83;72.15;100146.38;5344479;26;20237;-77
2024/04/19 04:30:08;;;;;;;8.13;7.43;;;;;;;8.57;70.30;100134.16;5343725;26;20233;-77
2024/04/19 04:32:33;;;;;;;7.20;6.60;;;;;;;8.57;70.78;100134.16;5343561;26;20233;-77
2024/04/19 04:34:59;;;;;;;8.10;7.03;;;;;;;7.99;71.77;100133.59;5345031;26;20756;-77
2024/04/19 04:37:24;;;;;;;7.93;7.23;;;;;;;8.09;71.70;100128.50;5347218;26;20351;-77
2024/04/19 04:39:49;;;;;;;7.73;7.07;;;;;;;8.45;71.74;100128.84;5346015;26;20255;-77
2024/04/19 04:42:14;;;;;;;7.60;6.90;;;;;;;8.42;70.86;100111.47;5348910;26;20256;-77
2024/04/19 04:44:40;;;;;;;7.27;6.57;;;;;;;8.12;71.43;100108.63;5348584;26;20281;-77
2024/04/19 04:47:05;;;;;;;7.27;6.67;;;;;;;8.39;72.00;100108.88;5348114;26;20237;-78
2024/04/19 04:49:30;;;;;;;7.50;6.80;;;;;;;8.50;71.41;100097.75;5347893;26;20264;-78
2024/04/19 04:51:56;;;;;;;9.57;7.10;;;;;;;7.93;72.68;100092.88;5346595;26;20225;-76
2024/04/19 04:54:26;;;;;;;6.77;6.07;;;;;;;8.15;71.59;100086.16;5348867;26;20403;-77
2024/04/19 04:56:51;;;;;;;7.80;7.03;;;;;;;7.63;73.06;100077.84;5348281;26;20278;-77
2024/04/19 04:59:17;;;;;;;6.90;6.30;;;;;;;7.67;73.06;100064.94;5347741;26;20415;-76
2024/04/19 05:01:42;;;;;;;6.87;6.27;;;;;;;7.87;73.02;100066.84;5347691;26;20769;-77
2024/04/19 05:04:08;;;;;;;5.47;5.07;;;;;;;7.88;71.23;100064.28;5348178;26;20262;-77
2024/04/19 05:06:34;;;;;;;6.07;5.47;;;;;;;8.57;70.48;100048.41;5348152;26;20236;-77
2024/04/19 05:08:59;;;;;;;7.40;5.60;;;;;;;7.85;71.47;100058.19;5347988;26;20221;-77
2024/04/19 05:11:24;;;;;;;6.07;5.57;;;;;;;8.74;69.67;100045.94;5347928;26;20307;-77
2024/04/19 05:13:50;;;;;;;6.50;5.90;;;;;;;8.04;73.00;100049.72;5346175;26;20232;-78
2024/04/19 05:16:15;;;;;;;6.40;5.90;;;;;;;8.17;72.64;100035.13;5347423;26;20263;-77
2024/04/19 05:18:40;;;;;;;6.17;5.67;;;;;;;8.42;71.79;100038.75;5347711;26;20276;-77
2024/04/19 05:21:05;;;;;;;7.67;6.87;;;;;;;8.34;72.20;100036.97;5348247;26;20218;-77
2024/04/19 05:23:31;;;;;;;6.47;5.70;;;;;;;7.32;74.32;100031.72;5348223;26;20233;-76
2024/04/19 05:25:56;;;;;;;7.20;6.60;;;;;;;8.06;73.63;100018.56;5348764;26;20221;-78
2024/04/19 05:28:22;;;;;;;7.03;6.40;;;;;;;8.64;71.90;100020.75;5347603;26;20225;-75
2024/04/19 05:30:47;;;;;;;7.03;6.43;;;;;;;7.56;73.70;100014.66;5346252;26;20277;-77
2024/04/19 05:33:12;;;;;;;7.57;6.90;;;;;;;8.34;73.84;100019.66;5348667;26;20583;-77
2024/04/19 05:35:38;;;;;;;7.77;7.07;;;;;;;8.09;73.89;100018.59;5347965;26;20305;-77
2024/04/19 05:38:03;;;;;;;7.20;6.60;;;;;;;8.15;73.88;100012.59;5347536;26;20233;-76
2024/04/19 05:40:28;;;;;;;8.37;7.57;;;;;;;8.33;73.54;100004.06;5347846;26;20217;-78
2024/04/19 05:42:54;;;;;;;7.53;6.93;;;;;;;8.29;73.68;99987.59;5348239;26;20267;-77
2024/04/19 05:45:20;;;;;;;7.50;6.90;;;;;;;7.37;75.56;100005.81;5348078;26;20326;-77
2024/04/19 05:47:46;;;;;;;7.40;6.70;;;;;;;8.52;74.15;100000.75;5375629;26;20237;-76
2024/04/19 05:50:11;;;;;;;8.00;7.00;;;;;;;8.27;74.19;99994.50;5347880;26;20504;-77
2024/04/19 05:52:38;;;;;;;7.33;6.73;;;;;;;8.42;73.72;100005.00;5349183;26;20229;-77
2024/04/19 05:55:03;;;;;;;7.77;7.13;;;;;;;8.47;73.81;99991.19;5349592;26;20263;-77
2024/04/19 05:57:29;;;;;;;7.80;7.10;;;;;;;8.87;72.11;99981.03;5348216;26;20824;-75
2024/04/19 05:59:54;;;;;;;7.30;6.60;;;;;;;8.26;73.73;99983.22;5347562;26;20796;-78
2024/04/19 06:02:20;;;;;;;8.40;7.70;;;;;;;8.87;72.27;99971.47;5347490;26;20217;-77
2024/04/19 06:04:45;;;;;;;7.43;6.83;;;;;;;8.16;73.19;99975.38;5348418;26;20307;-78
2024/04/19 06:07:10;;;;;;;7.47;6.87;;;;;;;8.99;71.86;99964.59;5347706;26;20241;-78
2024/04/19 06:09:36;;;;;;;29.53;25.37;;;;;;;8.97;72.16;99961.13;5348844;26;20706;-78
2024/04/19 06:12:01;;;;;;;10.63;9.67;;;;;;;8.57;71.97;99957.47;5347963;26;20233;-76
2024/04/19 06:14:27;;;;;;;6.83;6.23;;;;;;;8.99;71.83;99956.81;5347541;26;20229;-78
2024/04/19 06:16:52;;;;;;;7.43;6.73;;;;;;;9.10;72.26;99948.16;5347436;26;20658;-77
2024/04/19 06:19:17;;;;;;;6.83;6.33;;;;;;;8.45;72.75;99948.75;5347087;26;20221;-76
2024/04/19 06:21:42;;;;;;;7.00;6.40;;;;;;;8.95;73.10;99942.91;5346499;26;20241;-77
2024/04/19 06:24:08;;;;;;;7.83;7.13;;;;;;;9.14;72.44;99933.44;5346595;26;20259;-78
2024/04/19 06:26:33;;;;;;;9.90;8.90;;;;;;;9.76;70.91;99918.75;5346621;26;20260;-77
2024/04/19 06:28:58;;;;;;;10.90;9.80;;;;;;;9.69;70.73;99910.97;5347562;26;20221;-78
2024/04/19 06:31:24;;;;;;;7.30;6.70;;;;;;;9.72;71.05;99916.19;5354169;26;20255;-79
2024/04/19 06:33:49;;;;;;;10.40;8.83;;;;;;;8.93;72.58;99918.66;5349149;26;20238;-79
2024/04/19 06:36:14;;;;;;;7.83;7.13;;;;;;;9.55;71.69;99904.03;5349370;26;20232;-77
2024/04/19 06:38:40;;;;;;;8.13;7.43;;;;;;;9.33;72.49;99903.13;5356532;26;20287;-78
2024/04/19 06:41:05;;;;;;;10.00;9.10;;;;;;;9.51;71.54;99899.69;5358581;26;20280;-78
2024/04/19 06:43:30;;;;;;;7.97;7.27;;;;;;;8.98;73.09;99898.72;5357510;26;20229;-79
2024/04/19 06:45:58;;;;;;;9.33;8.53;;;;;;;9.16;73.17;99889.22;5352770;26;20268;-79
2024/04/19 06:48:24;;;;;;;7.93;7.23;;;;;;;9.63;71.95;99885.78;5350945;26;20297;-79
2024/04/19 06:50:49;;;;;;;6.90;6.27;;;;;;;9.53;71.92;99879.72;5348502;26;20451;-79
2024/04/19 06:53:14;;;;;;;8.00;7.30;;;;;;;9.26;72.59;99880.59;5348191;26;20452;-78
2024/04/19 06:55:40;;;;;;;7.50;6.90;;;;;;;9.71;72.58;99872.78;5348457;26;20711;-77
2024/04/19 06:58:07;;;;;;;9.10;8.30;;;;;;;9.80;72.36;99875.38;5347646;26;20233;-78
2024/04/19 07:00:33;;;;;;;8.57;7.60;;;;;;;10.04;71.25;99868.38;5347730;26;21017;-78
2024/04/19 07:02:58;;;;;;;8.07;7.47;;;;;;;9.96;72.07;99871.03;5348452;26;20444;-78
2024/04/19 07:05:25;;;;;;;8.43;7.70;;;;;;;10.05;71.25;99863.19;5348092;26;20218;-78
2024/04/19 07:07:50;;;;;;;9.80;9.00;;;;;;;10.00;71.30;99864.94;5346505;26;20272;-77
2024/04/19 07:10:16;;;;;;;9.20;8.40;;;;;;;10.10;71.58;99863.19;5346108;26;20988;-77
2024/04/19 07:12:41;;;;;;;9.33;8.53;;;;;;;10.17;71.90;99862.28;5346133;26;20221;-77
2024/04/19 07:15:07;;;;;;;10.30;9.40;;;;;;;10.45;71.57;99857.88;5345971;26;20276;-77
2024/04/19 07:17:34;;;;;;;11.30;10.30;;;;;;;10.72;70.64;99866.44;5344211;26;20241;-78
2024/04/19 07:19:59;;;;;;;9.87;9.07;;;;;;;10.54;71.07;99856.97;5345441;26;20482;-77
2024/04/19 07:22:24;;;;;;;9.80;9.00;;;;;;;10.02;71.64;99862.34;5346090;26;20444;-78
2024/04/19 07:24:50;;;;;;;9.87;9.07;;;;;;;10.44;72.04;99850.94;5345550;26;20225;-77
2024/04/19 07:27:15;;;;;;;11.13;10.13;;;;;;;10.26;72.39;99858.78;5345378;26;20765;-77
2024/04/19 07:29:40;;;;;;;10.70;9.70;;;;;;;10.54;71.82;99858.72;5345301;26;20217;-78
2024/04/19 07:32:06;;;;;;;10.57;9.70;;;;;;;10.57;72.41;99866.53;5345219;26;20742;-77
2024/04/19 07:34:31;;;;;;;11.40;10.37;;;;;;;10.55;72.32;99860.44;5345445;26;20333;-77
2024/04/19 07:36:56;;;;;;;12.50;11.37;;;;;;;10.38;72.84;99850.09;5346682;26;20233;-77
2024/04/19 07:39:21;;;;;;;12.57;11.37;;;;;;;10.38;72.58;99856.19;5346385;26;20287;-77
2024/04/19 07:41:47;;;;;;;17.70;15.83;;;;;;;10.69;71.87;99845.63;5345647;26;20221;-77
2024/04/19 07:44:12;;;;;;;10.90;9.87;;;;;;;10.55;72.25;99852.63;5345795;26;20255;-77
2024/04/19 07:46:37;;;;;;;10.73;9.40;;;;;;;10.54;72.26;99849.16;5345554;26;20217;-77
2024/04/19 07:49:02;;;;;;;11.07;10.07;;;;;;;10.46;72.72;99853.56;5345306;26;20729;-77
2024/04/19 07:51:28;;;;;;;10.67;9.67;;;;;;;9.99;74.25;99849.34;5345429;26;20264;-77
2024/04/19 07:53:53;;;;;;;11.27;9.47;;;;;;;10.24;74.07;99835.38;5345376;26;20338;-77
2024/04/19 07:56:19;;;;;;;10.53;9.53;;;;;;;10.93;72.25;99828.06;5343611;26;20264;-77
2024/04/19 07:58:44;;;;;;;10.13;8.90;;;;;;;11.38;71.70;99823.41;5345399;26;20606;-78
2024/04/19 08:01:10;;;;;;;9.27;8.47;;;;;;;11.35;71.82;99823.44;5345089;26;20224;-77
2024/04/19 08:03:35;;;;;;;9.40;8.60;;;;;;;11.67;70.92;99816.19;5347192;26;20267;-78
2024/04/19 08:06:01;;;;;;;9.40;6.63;;;;;;;11.51;69.42;99821.53;5347006;26;20225;-78
2024/04/19 08:08:26;;;;;;;8.03;7.20;;;;;;;11.20;71.03;99815.72;5346414;21;20257;-74
2024/04/19 08:10:52;;;;;;;8.20;6.20;;;;;;;11.86;69.96;99802.06;5309101;27;20224;-74
2024/04/19 08:13:17;;;;;;;9.97;6.70;;;;;;;12.03;69.79;99799.31;5310974;27;20746;-74
2024/04/19 08:15:42;;;;;;;7.13;6.37;;;;;;;11.75;70.00;99801.31;5310744;27;20641;-75
2024/04/19 08:18:08;;;;;;;8.07;5.30;;;;;;;11.43;70.18;99798.16;5310351;27;20365;-75
2024/04/19 08:20:33;;;;;;;6.30;4.97;;;;;;;11.78;70.22;99791.72;5311074;27;20790;-74
2024/04/19 08:22:58;;;;;;;5.97;4.60;;;;;;;11.91;70.01;99794.19;5313757;27;20229;-74
2024/04/19 08:25:24;;;;;;;6.53;4.77;;;;;;;12.15;68.48;99782.63;5314090;27;20222;-74
2024/04/19 08:27:49;;;;;;;7.63;4.50;;;;;;;12.07;69.56;99784.44;5310933;27;20227;-74
2024/04/19 08:30:14;;;;;;;5.77;4.87;;;;;;;11.99;69.42;99779.31;5310810;27;20218;-75
2024/04/19 08:32:39;;;;;;;5.13;3.87;;;;;;;12.14;69.24;99780.88;5310516;27;20723;-74
2024/04/19 08:35:05;;;;;;;7.87;4.77;;;;;;;12.61;68.45;99773.28;5280493;27;20255;-75
2024/04/19 08:37:33;;;;;;;7.30;4.53;;;;;;;12.90;68.98;99762.38;5310706;27;20238;-75
2024/04/19 08:39:59;;;;;;;8.67;3.90;;;;;;;12.75;67.55;99773.94;5279270;27;20273;-75
2024/04/19 08:42:25;;;;;;;9.83;3.43;;;;;;;12.92;67.99;99763.25;5310142;27;20797;-75
2024/04/19 08:44:51;;;;;;;7.07;3.60;;;;;;;12.78;65.89;99763.44;5310121;27;20339;-75
2024/04/19 08:47:18;;;;;;;6.07;3.60;;;;;;;12.74;66.38;99764.38;5309746;27;20319;-75
2024/04/19 08:49:44;;;;;;;10.43;3.53;;;;;;;12.79;66.94;99759.09;5309617;27;20449;-75
2024/04/19 08:52:09;;;;;;;8.67;3.40;;;;;;;12.85;65.87;99756.34;5309946;27;20505;-76
2024/04/19 08:54:36;;;;;;;9.20;4.33;;;;;;;12.47;67.13;99778.72;5309219;27;20430;-73
2024/04/19 08:57:04;;;;;;;7.90;4.60;;;;;;;12.55;67.33;99762.91;5309313;27;20234;-77
2024/04/19 08:59:31;;;;;;;4.70;3.50;;;;;;;11.99;67.39;99770.59;5309669;27;20425;-75
2024/04/19 09:01:56;;;;;;;12.60;8.57;;;;;;;11.90;68.19;99777.63;5312516;27;20453;-75
2024/04/19 09:04:21;;;;;;;8.57;3.90;;;;;;;12.08;68.45;99762.66;5279439;27;20500;-75
2024/04/19 09:06:48;;;;;;;11.10;3.37;;;;;;;12.10;68.28;99769.59;5309565;27;20226;-77
2024/04/19 09:09:14;;;;;;;4.87;2.90;;;;;;;11.59;68.03;99777.09;5309405;26;20785;-75
2024/04/19 09:11:46;;;;;;;5.87;3.10;;;;;;;11.85;66.30;99774.19;5309223;27;20743;-75
2024/04/19 09:14:11;;;;;;;3.30;2.77;;;;;;;11.95;67.06;99773.25;5308818;27;20966;-75
2024/04/19 09:16:36;;;;;;;5.07;2.70;;;;;;;12.09;66.11;99765.25;5309319;27;20502;-74
2024/04/19 09:19:02;;;;;;;2.80;2.50;;;;;;;12.58;65.99;99762.88;5309324;27;20280;-74
2024/04/19 09:21:27;;;;;;;4.90;3.07;;;;;;;12.74;65.52;99766.13;5309614;27;20230;-75
2024/04/19 09:23:55;;;;;;;6.60;3.70;;;;;;;13.04;64.31;99753.47;5313128;27;20230;-74
2024/04/19 09:26:21;;;;;;;4.10;3.33;;;;;;;13.08;64.02;99755.13;5312416;27;20226;-73
2024/04/19 09:28:48;;;;;;;9.97;4.07;;;;;;;12.82;65.00;99758.19;5312369;27;20831;-74
2024/04/19 09:31:14;;;;;;;4.80;3.57;;;;;;;12.30;66.47;99792.00;5313299;27;20441;-75
2024/04/19 09:33:41;;;;;;;6.37;3.20;;;;;;;10.67;68.89;99823.03;5313100;27;20434;-74
2024/04/19 09:36:07;;;;;;;2.87;2.67;;;;;;;10.90;67.72;99817.69;5282615;27;20507;-75
2024/04/19 09:38:37;;;;;;;4.37;3.60;;;;;;;10.72;68.04;99803.03;5312486;27;20425;-75
2024/04/19 09:41:05;;;;;;;3.50;3.00;;;;;;;10.60;68.28;99793.53;5312489;27;20425;-75
2024/04/19 09:43:36;;;;;;;4.10;3.43;;;;;;;11.04;66.65;99786.28;5312629;27;20449;-74
2024/04/19 09:46:03;;;;;;;3.87;2.90;;;;;;;10.96;66.29;99783.75;5312224;27;20568;-74
2024/04/19 09:48:35;;;;;;;3.80;3.17;;;;;;;10.83;68.19;99782.09;5312208;27;20449;-73
2024/04/19 09:51:04;;;;;;;6.60;4.27;;;;;;;11.36;67.24;99774.72;5312803;27;20505;-75
2024/04/19 09:53:36;;;;;;;5.10;3.40;;;;;;;11.18;68.13;99775.75;5312445;27;21074;-74
2024/04/19 09:56:17;;;;;;;5.50;3.40;;;;;;;11.81;66.60;99762.06;5313066;27;20429;-74
2024/04/19 09:58:44;;;;;;;5.07;3.60;;;;;;;12.34;65.92;99757.13;5313119;27;20494;-75
2024/04/19 10:01:10;;;;;;;4.90;3.60;;;;;;;12.43;64.68;99757.00;5282316;27;20508;-75
2024/04/19 10:03:36;;;;;;;6.93;4.00;;;;;;;12.23;66.58;99751.16;5312037;27;20778;-75
2024/04/19 10:06:05;;;;;;;6.37;4.10;;;;;;;12.78;65.48;99734.66;5312180;27;20555;-74
2024/04/19 10:08:30;;;;;;;7.93;4.30;;;;;;;13.23;65.56;99744.41;5311443;26;20469;-73
2024/04/19 10:10:57;;;;;;;6.03;3.90;;;;;;;13.93;64.67;99735.28;5312100;27;20563;-74
2024/04/19 10:13:24;;;;;;;9.57;4.20;;;;;;;13.93;65.79;99730.03;5311877;27;20219;-74
2024/04/19 10:15:49;;;;;;;7.20;3.90;;;;;;;13.73;64.59;99725.19;5281001;27;20597;-76
2024/04/19 10:18:15;;;;;;;5.67;4.13;;;;;;;13.60;64.33;99729.84;5311855;27;20510;-74
2024/04/19 10:20:41;;;;;;;5.77;4.70;;;;;;;13.11;64.33;99714.09;5311984;27;20226;-74
2024/04/19 10:23:09;;;;;;;7.87;4.47;;;;;;;13.56;64.14;99705.44;5312116;27;20445;-74
2024/04/19 10:25:37;;;;;;;6.90;4.63;;;;;;;13.99;62.62;99695.88;5311833;27;20640;-74
2024/04/19 10:28:03;;;;;;;5.67;3.93;;;;;;;13.66;64.15;99693.03;5311269;27;20528;-75
2024/04/19 10:30:30;;;;;;;7.17;4.00;;;;;;;13.96;62.71;99690.66;5311692;27;20425;-72
2024/04/19 10:32:58;;;;;;;5.13;3.80;;;;;;;14.08;62.15;99689.56;5311246;27;20614;-75
2024/04/19 10:35:23;;;;;;;6.43;5.10;;;;;;;13.48;62.20;99687.25;5310300;27;20543;-75
2024/04/19 10:37:51;;;;;;;9.10;4.23;;;;;;;12.82;63.17;99714.56;5311851;27;20441;-73
2024/04/19 10:40:19;;;;;;;7.77;4.17;;;;;;;12.12;66.83;99723.44;5256639;27;20234;-73
2024/04/19 10:42:45;;;;;;;8.83;5.27;;;;;;;12.68;67.76;99706.06;5281397;27;20426;-75
2024/04/19 10:45:12;;;;;;;6.97;3.80;;;;;;;12.42;67.14;99699.47;5311726;27;20542;-75
2024/04/19 10:47:38;;;;;;;11.13;3.80;;;;;;;12.61;67.10;99697.44;5310648;27;20297;-75
2024/04/19 10:50:04;;;;;;;6.50;3.77;;;;;;;12.58;66.22;99697.50;5311530;27;20445;-75
2024/04/19 10:52:33;;;;;;;7.60;3.50;;;;;;;13.03;64.97;99679.34;5311473;27;20421;-75
2024/04/19 10:54:58;;;;;;;6.03;4.20;;;;;;;13.84;64.19;99676.06;5311802;27;20233;-74
2024/04/19 10:57:24;;;;;;;7.90;4.27;;;;;;;13.37;64.53;99678.75;5281446;27;20437;-74
2024/04/19 10:59:49;;;;;;;11.30;5.17;;;;;;;13.32;64.01;99670.09;5280754;27;20692;-74
2024/04/19 11:02:17;;;;;;;7.70;3.60;;;;;;;13.50;62.99;99675.91;5311466;27;20272;-73
2024/04/19 11:04:44;;;;;;;5.13;3.40;;;;;;;12.56;65.67;99679.25;5311539;27;20234;-76
2024/04/19 11:07:09;;;;;;;8.27;3.70;;;;;;;12.60;67.06;99674.84;5311857;27;20497;-75
2024/04/19 11:09:35;;;;;;;7.70;3.27;;;;;;;12.86;65.51;99676.16;5311509;27;20425;-73
2024/04/19 11:12:01;;;;;;;12.53;6.07;;;;;;;13.49;65.06;99659.34;5311380;27;20268;-75
2024/04/19 11:14:28;;;;;;;6.27;4.23;;;;;;;13.20;62.35;99671.16;5310727;27;20226;-75
2024/04/19 11:16:53;;;;;;;9.13;5.00;;;;;;;13.79;63.04;99660.47;5310965;27;21027;-74
2024/04/19 11:19:19;;;;;;;7.73;3.90;;;;;;;14.33;62.13;99658.41;5311382;27;20417;-74
2024/04/19 11:21:45;;;;;;;6.47;3.53;;;;;;;14.32;61.05;99654.91;5310991;27;20222;-76
2024/04/19 11:24:10;;;;;;;5.20;3.30;;;;;;;14.30;61.01;99656.72;5311821;27;20229;-75
2024/04/19 11:26:35;;;;;;;7.60;3.97;;;;;;;14.17;60.89;99657.91;5310341;27;20537;-75
2024/04/19 11:29:01;;;;;;;10.20;4.10;;;;;;;13.50;60.35;99657.56;5310286;27;20320;-76